sensor_id;sensor_type;location;lat;lon;timestamp;pressure;altitude;pressure_sealevel;temperature;humidity
13836;BME280;6988;52.614;13.500;2023-03-04T00:03:46;54822.25;;;-143.77;77.46
13836;BME280;6988;52.614;13.500;2023-03-04T00:08:38;54826.34;;;-143.77;77.52
13836;BME280;6988;52.614;13.500;2023-03-04T00:13:29;54855.06;;;-143.77;77.57
13836;BME280;6988;52.614;13.500;2023-03-04T00:18:21;54838.66;;;-143.77;78.13
13836;BME280;6988;52.614;13.500;2023-03-04T00:23:15;54857.13;;;-143.77;78.63
13836;BME280;6988;52.614;13.500;2023-03-04T00:28:07;54859.19;;;-143.77;78.38
13836;BME280;6988;52.614;13.500;2023-03-04T00:32:58;54828.41;;;-143.77;78.34
13836;BME280;6988;52.614;13.500;2023-03-04T00:37:50;54844.81;;;-143.77;78.07
13836;BME280;6988;52.614;13.500;2023-03-04T00:42:43;54846.88;;;-143.77;78.63
13836;BME280;6988;52.614;13.500;2023-03-04T00:47:35;54822.25;;;-143.77;78.16
13836;BME280;6988;52.614;13.500;2023-03-04T00:52:27;54824.28;;;-143.77;77.84
13836;BME280;6988;52.614;13.500;2023-03-04T00:57:19;54805.81;;;-143.77;77.94
13836;BME280;6988;52.614;13.500;2023-03-04T01:02:12;54844.81;;;-143.77;77.69
13836;BME280;6988;52.614;13.500;2023-03-04T01:07:04;54824.28;;;-143.77;77.51
13836;BME280;6988;52.614;13.500;2023-03-04T01:11:56;54855.06;;;-143.77;77.53
13836;BME280;6988;52.614;13.500;2023-03-04T01:16:49;54865.34;;;-143.77;77.46
13836;BME280;6988;52.614;13.500;2023-03-04T01:21:42;54816.09;;;-143.77;77.22
13836;BME280;6988;52.614;13.500;2023-03-04T01:26:34;54832.50;;;-143.77;77.11
13836;BME280;6988;52.614;13.500;2023-03-04T01:31:26;54814.03;;;-143.77;76.74
13836;BME280;6988;52.614;13.500;2023-03-04T01:36:18;54850.97;;;-143.77;76.90
13836;BME280;6988;52.614;13.500;2023-03-04T01:41:13;54801.72;;;-143.77;77.07
13836;BME280;6988;52.614;13.500;2023-03-04T01:46:10;54850.97;;;-143.77;77.15
13836;BME280;6988;52.614;13.500;2023-03-04T01:51:09;54826.34;;;-143.77;77.18
13836;BME280;6988;52.614;13.500;2023-03-04T01:56:15;54844.81;;;-143.77;77.34
13836;BME280;6988;52.614;13.500;2023-03-04T02:01:10;54848.91;;;-143.77;77.52
13836;BME280;6988;52.614;13.500;2023-03-04T02:06:02;54830.44;;;-143.77;77.48
13836;BME280;6988;52.614;13.500;2023-03-04T02:10:55;54846.88;;;-143.77;77.59
13836;BME280;6988;52.614;13.500;2023-03-04T02:15:48;54824.28;;;-143.77;77.27
13836;BME280;6988;52.614;13.500;2023-03-04T02:20:50;54836.59;;;-143.77;77.54
13836;BME280;6988;52.614;13.500;2023-03-04T02:25:49;54816.09;;;-143.77;77.58
13836;BME280;6988;52.614;13.500;2023-03-04T02:30:45;54809.94;;;-143.77;77.72
13836;BME280;6988;52.614;13.500;2023-03-04T02:35:37;54820.19;;;-143.77;77.62
13836;BME280;6988;52.614;13.500;2023-03-04T02:40:32;54863.28;;;-143.77;77.51
13836;BME280;6988;52.614;13.500;2023-03-04T02:45:39;54836.59;;;-143.77;77.61
13836;BME280;6988;52.614;13.500;2023-03-04T02:50:39;54816.09;;;-143.77;77.99
13836;BME280;6988;52.614;13.500;2023-03-04T02:55:32;54828.41;;;-143.77;78.17
13836;BME280;6988;52.614;13.500;2023-03-04T03:00:25;54816.09;;;-143.77;78.08
13836;BME280;6988;52.614;13.500;2023-03-04T03:05:17;54822.25;;;-143.77;78.56
13836;BME280;6988;52.614;13.500;2023-03-04T03:10:12;54801.72;;;-143.77;78.28
13836;BME280;6988;52.614;13.500;2023-03-04T03:15:06;54777.09;;;-143.77;78.55
13836;BME280;6988;52.614;13.500;2023-03-04T03:19:58;54822.25;;;-143.77;78.83
13836;BME280;6988;52.614;13.500;2023-03-04T03:24:50;54814.03;;;-143.77;78.82
13836;BME280;6988;52.614;13.500;2023-03-04T03:29:43;54793.50;;;-143.77;78.72
13836;BME280;6988;52.614;13.500;2023-03-04T03:34:35;54801.72;;;-143.77;78.81
13836;BME280;6988;52.614;13.500;2023-03-04T03:39:28;54838.66;;;-143.77;78.80
13836;BME280;6988;52.614;13.500;2023-03-04T03:44:19;54814.03;;;-143.77;79.13
13836;BME280;6988;52.614;13.500;2023-03-04T03:49:13;54822.25;;;-143.77;78.94
13836;BME280;6988;52.614;13.500;2023-03-04T03:54:06;54814.03;;;-143.77;78.70
13836;BME280;6988;52.614;13.500;2023-03-04T03:58:58;54803.78;;;-143.77;79.16
13836;BME280;6988;52.614;13.500;2023-03-04T04:03:50;54807.88;;;-143.77;79.12
13836;BME280;6988;52.614;13.500;2023-03-04T04:08:43;54770.94;;;-143.77;78.84
13836;BME280;6988;52.614;13.500;2023-03-04T04:13:35;54807.88;;;-143.77;79.01
13836;BME280;6988;52.614;13.500;2023-03-04T04:18:27;54805.81;;;-143.77;79.20
13836;BME280;6988;52.614;13.500;2023-03-04T04:23:19;54830.44;;;-143.77;78.99
13836;BME280;6988;52.614;13.500;2023-03-04T04:28:12;54791.47;;;-143.77;78.74
13836;BME280;6988;52.614;13.500;2023-03-04T04:33:04;54781.19;;;-143.77;78.61
13836;BME280;6988;52.614;13.500;2023-03-04T04:37:56;54795.56;;;-143.77;78.48
13836;BME280;6988;52.614;13.500;2023-03-04T04:42:48;54787.34;;;-143.77;78.17
13836;BME280;6988;52.614;13.500;2023-03-04T04:47:41;54789.41;;;-143.77;78.47
13836;BME280;6988;52.614;13.500;2023-03-04T04:52:33;54779.16;;;-143.77;78.26
13836;BME280;6988;52.614;13.500;2023-03-04T04:57:25;54783.25;;;-143.77;78.49
13836;BME280;6988;52.614;13.500;2023-03-04T05:02:17;54803.78;;;-143.77;78.50
13836;BME280;6988;52.614;13.500;2023-03-04T05:07:10;54760.69;;;-143.77;78.07
13836;BME280;6988;52.614;13.500;2023-03-04T05:12:02;54783.25;;;-143.77;77.99
13836;BME280;6988;52.614;13.500;2023-03-04T05:16:54;54781.19;;;-143.77;77.89
13836;BME280;6988;52.614;13.500;2023-03-04T05:21:46;54850.97;;;-143.77;78.04
13836;BME280;6988;52.614;13.500;2023-03-04T05:26:39;54789.41;;;-143.77;77.86
13836;BME280;6988;52.614;13.500;2023-03-04T05:31:31;54762.72;;;-143.77;77.81
13836;BME280;6988;52.614;13.500;2023-03-04T05:36:23;54795.56;;;-143.77;78.21
13836;BME280;6988;52.614;13.500;2023-03-04T05:41:15;54816.09;;;-143.77;78.28
13836;BME280;6988;52.614;13.500;2023-03-04T05:46:13;54805.81;;;-143.77;78.48
13836;BME280;6988;52.614;13.500;2023-03-04T05:51:05;54779.16;;;-143.77;78.65
13836;BME280;6988;52.614;13.500;2023-03-04T05:55:57;54803.78;;;-143.77;78.61
13836;BME280;6988;52.614;13.500;2023-03-04T06:00:49;54783.25;;;-143.77;78.98
13836;BME280;6988;52.614;13.500;2023-03-04T06:05:42;54791.47;;;-143.77;79.27
13836;BME280;6988;52.614;13.500;2023-03-04T06:10:34;54775.03;;;-143.77;79.58
13836;BME280;6988;52.614;13.500;2023-03-04T06:15:26;54795.56;;;-143.77;79.99
13836;BME280;6988;52.614;13.500;2023-03-04T06:20:18;54773.00;;;-143.77;80.63
13836;BME280;6988;52.614;13.500;2023-03-04T06:25:11;54807.88;;;-143.77;80.58
13836;BME280;6988;52.614;13.500;2023-03-04T06:30:05;54791.47;;;-143.77;81.26
13836;BME280;6988;52.614;13.500;2023-03-04T06:34:57;54799.66;;;-143.77;81.94
13836;BME280;6988;52.614;13.500;2023-03-04T06:39:49;54809.94;;;-143.77;82.18
13836;BME280;6988;52.614;13.500;2023-03-04T06:51:08;54740.16;;;-143.77;82.81
13836;BME280;6988;52.614;13.500;2023-03-04T06:56:01;54820.19;;;-143.77;83.30
13836;BME280;6988;52.614;13.500;2023-03-04T07:00:52;54783.25;;;-143.77;83.67
13836;BME280;6988;52.614;13.500;2023-03-04T07:05:44;54787.34;;;-143.77;83.44
13836;BME280;6988;52.614;13.500;2023-03-04T07:10:38;54783.25;;;-143.77;84.31
13836;BME280;6988;52.614;13.500;2023-03-04T07:15:30;54783.25;;;-143.77;84.24
13836;BME280;6988;52.614;13.500;2023-03-04T07:20:22;54770.94;;;-143.77;83.57
13836;BME280;6988;52.614;13.500;2023-03-04T07:25:14;54785.31;;;-143.77;84.02
13836;BME280;6988;52.614;13.500;2023-03-04T07:30:10;54744.25;;;-143.77;83.58
13836;BME280;6988;52.614;13.500;2023-03-04T07:35:03;54748.38;;;-143.77;83.40
13836;BME280;6988;52.614;13.500;2023-03-04T07:39:55;54775.03;;;-143.77;83.30
13836;BME280;6988;52.614;13.500;2023-03-04T07:44:47;54791.47;;;-143.77;83.60
13836;BME280;6988;52.614;13.500;2023-03-04T07:49:40;54783.25;;;-143.77;83.91
13836;BME280;6988;52.614;13.500;2023-03-04T07:54:32;54783.25;;;-143.77;83.72
13836;BME280;6988;52.614;13.500;2023-03-04T07:59:24;54748.38;;;-143.77;84.32
13836;BME280;6988;52.614;13.500;2023-03-04T08:04:16;54775.03;;;-143.77;83.81
13836;BME280;6988;52.614;13.500;2023-03-04T08:09:11;54736.06;;;-143.77;84.83
13836;BME280;6988;52.614;13.500;2023-03-04T08:14:04;54781.19;;;-143.77;85.04
13836;BME280;6988;52.614;13.500;2023-03-04T08:18:59;54766.84;;;-143.77;85.40
13836;BME280;6988;52.614;13.500;2023-03-04T08:23:53;54779.16;;;-143.77;85.22
13836;BME280;6988;52.614;13.500;2023-03-04T08:28:46;54770.94;;;-143.77;85.19
13836;BME280;6988;52.614;13.500;2023-03-04T08:33:38;54762.72;;;-143.77;84.15
13836;BME280;6988;52.614;13.500;2023-03-04T08:38:30;54740.16;;;-143.77;83.58
13836;BME280;6988;52.614;13.500;2023-03-04T08:43:24;54762.72;;;-143.77;83.56
13836;BME280;6988;52.614;13.500;2023-03-04T08:48:18;54719.63;;;-143.77;82.91
13836;BME280;6988;52.614;13.500;2023-03-04T08:53:10;54736.06;;;-143.77;82.42
13836;BME280;6988;52.614;13.500;2023-03-04T08:58:03;54725.78;;;-143.77;81.99
13836;BME280;6988;52.614;13.500;2023-03-04T09:02:54;54754.53;;;-143.77;80.55
13836;BME280;6988;52.614;13.500;2023-03-04T09:07:47;54746.31;;;-143.77;80.69
13836;BME280;6988;52.614;13.500;2023-03-04T09:12:39;54719.63;;;-143.77;79.45
13836;BME280;6988;52.614;13.500;2023-03-04T09:17:32;54758.63;;;-143.77;78.57
13836;BME280;6988;52.614;13.500;2023-03-04T09:22:24;54729.91;;;-143.77;77.59
13836;BME280;6988;52.614;13.500;2023-03-04T09:27:18;54721.69;;;-143.77;77.17
13836;BME280;6988;52.614;13.500;2023-03-04T09:32:09;54746.31;;;-143.77;75.64
13836;BME280;6988;52.614;13.500;2023-03-04T09:37:01;54719.63;;;-143.77;73.76
13836;BME280;6988;52.614;13.500;2023-03-04T09:41:56;54729.91;;;-143.77;70.94
13836;BME280;6988;52.614;13.500;2023-03-04T09:46:51;54692.97;;;-143.77;69.90
13836;BME280;6988;52.614;13.500;2023-03-04T09:51:50;54684.75;;;-143.77;68.05
13836;BME280;6988;52.614;13.500;2023-03-04T09:56:50;54742.22;;;-143.77;67.70
13836;BME280;6988;52.614;13.500;2023-03-04T10:01:50;54711.44;;;-143.77;66.29
13836;BME280;6988;52.614;13.500;2023-03-04T10:06:46;54690.91;;;-143.77;65.11
13836;BME280;6988;52.614;13.500;2023-03-04T10:11:47;54686.81;;;-143.77;64.14
13836;BME280;6988;52.614;13.500;2023-03-04T10:16:44;54672.44;;;-143.77;63.31
13836;BME280;6988;52.614;13.500;2023-03-04T10:21:43;54643.72;;;-143.77;62.21
13836;BME280;6988;52.614;13.500;2023-03-04T10:26:35;54639.59;;;-143.77;62.88
13836;BME280;6988;52.614;13.500;2023-03-04T10:31:33;54639.59;;;-143.77;61.56
13836;BME280;6988;52.614;13.500;2023-03-04T10:36:41;54641.66;;;-143.77;61.85
13836;BME280;6988;52.614;13.500;2023-03-04T10:41:35;54643.72;;;-143.77;61.26
13836;BME280;6988;52.614;13.500;2023-03-04T10:46:27;54614.97;;;-143.77;61.05
13836;BME280;6988;52.614;13.500;2023-03-04T10:51:23;54656.03;;;-143.77;60.77
13836;BME280;6988;52.614;13.500;2023-03-04T10:56:55;54623.19;;;-143.77;59.80
13836;BME280;6988;52.614;13.500;2023-03-04T11:01:50;54604.72;;;-143.77;60.57
13836;BME280;6988;52.614;13.500;2023-03-04T11:06:41;54625.25;;;-143.77;59.39
13836;BME280;6988;52.614;13.500;2023-03-04T11:11:41;54647.81;;;-143.77;59.15
13836;BME280;6988;52.614;13.500;2023-03-04T11:16:35;54656.03;;;-143.77;59.57
13836;BME280;6988;52.614;13.500;2023-03-04T11:21:31;54635.50;;;-143.77;58.96
13836;BME280;6988;52.614;13.500;2023-03-04T11:26:29;54643.72;;;-143.77;58.78
13836;BME280;6988;52.614;13.500;2023-03-04T11:31:27;54614.97;;;-143.77;59.33
13836;BME280;6988;52.614;13.500;2023-03-04T11:36:32;54625.25;;;-143.77;58.46
13836;BME280;6988;52.614;13.500;2023-03-04T11:41:31;54631.41;;;-143.77;58.10
13836;BME280;6988;52.614;13.500;2023-03-04T11:47:19;54647.81;;;-143.77;58.15
13836;BME280;6988;52.614;13.500;2023-03-04T11:52:26;54635.50;;;-143.77;59.29
13836;BME280;6988;52.614;13.500;2023-03-04T11:57:35;54649.88;;;-143.77;58.03
13836;BME280;6988;52.614;13.500;2023-03-04T12:02:43;54619.09;;;-143.77;55.93
13836;BME280;6988;52.614;13.500;2023-03-04T12:08:24;54598.56;;;-143.77;56.56
13836;BME280;6988;52.614;13.500;2023-03-04T12:13:40;54629.34;;;-143.77;56.35
13836;BME280;6988;52.614;13.500;2023-03-04T12:18:55;54629.34;;;-143.77;56.34
13836;BME280;6988;52.614;13.500;2023-03-04T12:24:23;54602.66;;;-143.77;57.73
13836;BME280;6988;52.614;13.500;2023-03-04T12:29:28;54637.56;;;-143.77;57.60
13836;BME280;6988;52.614;13.500;2023-03-04T12:34:33;54623.19;;;-143.77;57.04
13836;BME280;6988;52.614;13.500;2023-03-04T12:39:33;54635.50;;;-143.77;57.76
13836;BME280;6988;52.614;13.500;2023-03-04T12:44:36;54639.59;;;-143.77;58.00
13836;BME280;6988;52.614;13.500;2023-03-04T12:50:02;54647.81;;;-143.77;57.44
13836;BME280;6988;52.614;13.500;2023-03-04T12:55:03;54649.88;;;-143.77;57.77
13836;BME280;6988;52.614;13.500;2023-03-04T13:00:16;54658.06;;;-143.77;58.08
13836;BME280;6988;52.614;13.500;2023-03-04T13:05:42;54637.56;;;-143.77;57.92
13836;BME280;6988;52.614;13.500;2023-03-04T13:10:38;54660.13;;;-143.77;57.54
13836;BME280;6988;52.614;13.500;2023-03-04T13:15:35;54664.22;;;-143.77;58.01
13836;BME280;6988;52.614;13.500;2023-03-04T13:20:37;54672.44;;;-143.77;57.11
13836;BME280;6988;52.614;13.500;2023-03-04T13:25:40;54666.28;;;-143.77;56.31
13836;BME280;6988;52.614;13.500;2023-03-04T13:31:10;54649.88;;;-143.77;55.94
13836;BME280;6988;52.614;13.500;2023-03-04T13:36:04;54660.13;;;-143.77;55.96
13836;BME280;6988;52.614;13.500;2023-03-04T13:41:11;54660.13;;;-143.77;55.96
13836;BME280;6988;52.614;13.500;2023-03-04T13:46:39;54680.66;;;-143.77;56.74
13836;BME280;6988;52.614;13.500;2023-03-04T13:51:34;54674.50;;;-143.77;57.20
13836;BME280;6988;52.614;13.500;2023-03-04T13:56:32;54688.84;;;-143.77;58.26
13836;BME280;6988;52.614;13.500;2023-03-04T14:01:27;54668.34;;;-143.77;57.99
13836;BME280;6988;52.614;13.500;2023-03-04T14:06:25;54670.38;;;-143.77;57.99
13836;BME280;6988;52.614;13.500;2023-03-04T14:11:26;54680.66;;;-143.77;57.72
13836;BME280;6988;52.614;13.500;2023-03-04T14:16:20;54688.84;;;-143.77;58.04
13836;BME280;6988;52.614;13.500;2023-03-04T14:21:15;54682.69;;;-143.77;56.53
13836;BME280;6988;52.614;13.500;2023-03-04T14:26:11;54660.13;;;-143.77;55.69
13836;BME280;6988;52.614;13.500;2023-03-04T14:31:04;54697.06;;;-143.77;55.79
13836;BME280;6988;52.614;13.500;2023-03-04T14:35:59;54682.69;;;-143.77;56.96
13836;BME280;6988;52.614;13.500;2023-03-04T14:40:58;54666.28;;;-143.77;57.23
13836;BME280;6988;52.614;13.500;2023-03-04T14:46:00;54699.13;;;-143.77;56.71
13836;BME280;6988;52.614;13.500;2023-03-04T14:50:55;54668.34;;;-143.77;57.17
13836;BME280;6988;52.614;13.500;2023-03-04T14:55:59;54680.66;;;-143.77;59.11
13836;BME280;6988;52.614;13.500;2023-03-04T15:01:12;54686.81;;;-143.77;59.40
13836;BME280;6988;52.614;13.500;2023-03-04T15:06:07;54731.94;;;-143.77;59.78
13836;BME280;6988;52.614;13.500;2023-03-04T15:11:07;54723.75;;;-143.77;60.18
13836;BME280;6988;52.614;13.500;2023-03-04T15:16:00;54717.59;;;-143.77;60.09
13836;BME280;6988;52.614;13.500;2023-03-04T15:20:57;54641.66;;;-143.77;60.41
13836;BME280;6988;52.614;13.500;2023-03-04T15:25:51;54664.22;;;-143.77;59.96
13836;BME280;6988;52.614;13.500;2023-03-04T15:30:44;54680.66;;;-143.77;59.16
13836;BME280;6988;52.614;13.500;2023-03-04T15:35:36;54680.66;;;-143.77;58.75
13836;BME280;6988;52.614;13.500;2023-03-04T15:40:33;54664.22;;;-143.77;58.89
13836;BME280;6988;52.614;13.500;2023-03-04T15:45:30;54697.06;;;-143.77;57.61
13836;BME280;6988;52.614;13.500;2023-03-04T15:50:27;54713.47;;;-143.77;58.08
13836;BME280;6988;52.614;13.500;2023-03-04T15:55:20;54711.44;;;-143.77;58.78
13836;BME280;6988;52.614;13.500;2023-03-04T16:00:15;54701.16;;;-143.77;59.31
13836;BME280;6988;52.614;13.500;2023-03-04T16:05:08;54705.28;;;-143.77;59.79
13836;BME280;6988;52.614;13.500;2023-03-04T16:10:06;54734.00;;;-143.77;60.59
13836;BME280;6988;52.614;13.500;2023-03-04T16:14:59;54721.69;;;-143.77;60.06
13836;BME280;6988;52.614;13.500;2023-03-04T16:19:52;54734.00;;;-143.77;60.06
13836;BME280;6988;52.614;13.500;2023-03-04T16:24:44;54773.00;;;-143.77;60.78
13836;BME280;6988;52.614;13.500;2023-03-04T16:29:36;54729.91;;;-143.77;60.49
13836;BME280;6988;52.614;13.500;2023-03-04T16:34:28;54729.91;;;-143.77;60.32
13836;BME280;6988;52.614;13.500;2023-03-04T16:39:23;54707.31;;;-143.77;60.56
13836;BME280;6988;52.614;13.500;2023-03-04T16:44:16;54734.00;;;-143.77;60.93
13836;BME280;6988;52.614;13.500;2023-03-04T16:49:08;54752.47;;;-143.77;60.50
13836;BME280;6988;52.614;13.500;2023-03-04T16:54:00;54738.09;;;-143.77;61.31
13836;BME280;6988;52.614;13.500;2023-03-04T16:58:54;54756.56;;;-143.77;61.21
13836;BME280;6988;52.614;13.500;2023-03-04T17:03:46;54746.31;;;-143.77;62.03
13836;BME280;6988;52.614;13.500;2023-03-04T17:08:38;54738.09;;;-143.77;61.59
13836;BME280;6988;52.614;13.500;2023-03-04T17:13:30;54746.31;;;-143.77;61.59
13836;BME280;6988;52.614;13.500;2023-03-04T17:18:23;54754.53;;;-143.77;62.03
13836;BME280;6988;52.614;13.500;2023-03-04T17:23:15;54775.03;;;-143.77;62.11
13836;BME280;6988;52.614;13.500;2023-03-04T17:28:06;54762.72;;;-143.77;62.51
13836;BME280;6988;52.614;13.500;2023-03-04T17:32:58;54787.34;;;-143.77;62.04
13836;BME280;6988;52.614;13.500;2023-03-04T17:37:51;54746.31;;;-143.77;62.26
13836;BME280;6988;52.614;13.500;2023-03-04T17:42:43;54746.31;;;-143.77;62.37
13836;BME280;6988;52.614;13.500;2023-03-04T17:47:35;54764.78;;;-143.77;62.54
13836;BME280;6988;52.614;13.500;2023-03-04T17:52:27;54770.94;;;-143.77;62.47
13836;BME280;6988;52.614;13.500;2023-03-04T17:57:21;54770.94;;;-143.77;63.25
13836;BME280;6988;52.614;13.500;2023-03-04T18:02:14;54787.34;;;-143.77;63.23
13836;BME280;6988;52.614;13.500;2023-03-04T18:07:06;54754.53;;;-143.77;63.38
13836;BME280;6988;52.614;13.500;2023-03-04T18:11:58;54766.84;;;-143.77;63.16
13836;BME280;6988;52.614;13.500;2023-03-04T18:16:51;54764.78;;;-143.77;62.91
13836;BME280;6988;52.614;13.500;2023-03-04T18:21:42;54764.78;;;-143.77;63.41
13836;BME280;6988;52.614;13.500;2023-03-04T18:26:35;54766.84;;;-143.77;63.81
13836;BME280;6988;52.614;13.500;2023-03-04T18:31:28;54754.53;;;-143.77;63.45
13836;BME280;6988;52.614;13.500;2023-03-04T18:36:23;54789.41;;;-143.77;63.93
13836;BME280;6988;52.614;13.500;2023-03-04T18:41:15;54779.16;;;-143.77;64.64
13836;BME280;6988;52.614;13.500;2023-03-04T18:46:12;54754.53;;;-143.77;64.48
13836;BME280;6988;52.614;13.500;2023-03-04T18:51:10;54766.84;;;-143.77;64.03
13836;BME280;6988;52.614;13.500;2023-03-04T18:56:08;54756.56;;;-143.77;64.58
13836;BME280;6988;52.614;13.500;2023-03-04T19:01:03;54791.47;;;-143.77;64.95
13836;BME280;6988;52.614;13.500;2023-03-04T19:05:55;54766.84;;;-143.77;65.58
13836;BME280;6988;52.614;13.500;2023-03-04T19:10:47;54754.53;;;-143.77;65.64
13836;BME280;6988;52.614;13.500;2023-03-04T19:15:40;54803.78;;;-143.77;65.74
13836;BME280;6988;52.614;13.500;2023-03-04T19:20:31;54779.16;;;-143.77;65.53
13836;BME280;6988;52.614;13.500;2023-03-04T19:25:23;54787.34;;;-143.77;66.12
13836;BME280;6988;52.614;13.500;2023-03-04T19:30:15;54809.94;;;-143.77;66.85
13836;BME280;6988;52.614;13.500;2023-03-04T19:35:09;54799.66;;;-143.77;66.78
13836;BME280;6988;52.614;13.500;2023-03-04T19:40:01;54803.78;;;-143.77;66.80
13836;BME280;6988;52.614;13.500;2023-03-04T19:44:52;54799.66;;;-143.77;67.38
13836;BME280;6988;52.614;13.500;2023-03-04T19:49:44;54811.97;;;-143.77;67.32
13836;BME280;6988;52.614;13.500;2023-03-04T19:54:37;54762.72;;;-143.77;67.01
13836;BME280;6988;52.614;13.500;2023-03-04T19:59:29;54779.16;;;-143.77;66.34
13836;BME280;6988;52.614;13.500;2023-03-04T20:04:21;54789.41;;;-143.77;66.42
13836;BME280;6988;52.614;13.500;2023-03-04T20:09:14;54797.63;;;-143.77;66.10
13836;BME280;6988;52.614;13.500;2023-03-04T20:14:08;54803.78;;;-143.77;65.97
13836;BME280;6988;52.614;13.500;2023-03-04T20:18:59;54797.63;;;-143.77;65.63
13836;BME280;6988;52.614;13.500;2023-03-04T20:23:51;54801.72;;;-143.77;66.23
13836;BME280;6988;52.614;13.500;2023-03-04T20:28:43;54799.66;;;-143.77;64.89
13836;BME280;6988;52.614;13.500;2023-03-04T20:33:36;54836.59;;;-143.77;63.14
13836;BME280;6988;52.614;13.500;2023-03-04T20:38:28;54816.09;;;-143.77;62.60
13836;BME280;6988;52.614;13.500;2023-03-04T20:43:20;54799.66;;;-143.77;61.90
13836;BME280;6988;52.614;13.500;2023-03-04T20:48:13;54785.31;;;-143.77;62.10
13836;BME280;6988;52.614;13.500;2023-03-04T20:53:06;54814.03;;;-143.77;62.55
13836;BME280;6988;52.614;13.500;2023-03-04T20:57:58;54816.09;;;-143.77;62.95
13836;BME280;6988;52.614;13.500;2023-03-04T21:02:49;54807.88;;;-143.77;63.11
13836;BME280;6988;52.614;13.500;2023-03-04T21:07:42;54807.88;;;-143.77;62.35
13836;BME280;6988;52.614;13.500;2023-03-04T21:12:35;54840.72;;;-143.77;62.64
13836;BME280;6988;52.614;13.500;2023-03-04T21:17:27;54824.28;;;-143.77;63.47
13836;BME280;6988;52.614;13.500;2023-03-04T21:22:19;54844.81;;;-143.77;63.76
13836;BME280;6988;52.614;13.500;2023-03-04T21:27:11;54807.88;;;-143.77;63.25
13836;BME280;6988;52.614;13.500;2023-03-04T21:32:13;54840.72;;;-143.77;63.96
13836;BME280;6988;52.614;13.500;2023-03-04T21:37:06;54803.78;;;-143.77;64.80
13836;BME280;6988;52.614;13.500;2023-03-04T21:41:59;54820.19;;;-143.77;65.43
13836;BME280;6988;52.614;13.500;2023-03-04T21:46:51;54842.75;;;-143.77;65.13
13836;BME280;6988;52.614;13.500;2023-03-04T21:51:44;54931.00;;;-143.77;64.62
13836;BME280;6988;52.614;13.500;2023-03-04T21:56:37;54791.47;;;-143.77;63.94
13836;BME280;6988;52.614;13.500;2023-03-04T22:01:28;54836.59;;;-143.77;63.88
13836;BME280;6988;52.614;13.500;2023-03-04T22:06:21;54822.25;;;-143.77;64.17
13836;BME280;6988;52.614;13.500;2023-03-04T22:11:15;54859.19;;;-143.77;64.37
13836;BME280;6988;52.614;13.500;2023-03-04T22:16:08;54820.19;;;-143.77;64.91
13836;BME280;6988;52.614;13.500;2023-03-04T22:21:02;54926.91;;;-143.77;65.49
13836;BME280;6988;52.614;13.500;2023-03-04T22:25:59;54848.91;;;-143.77;65.95
13836;BME280;6988;52.614;13.500;2023-03-04T22:30:53;54859.19;;;-143.77;66.12
13836;BME280;6988;52.614;13.500;2023-03-04T22:35:45;54848.91;;;-143.77;66.65
13836;BME280;6988;52.614;13.500;2023-03-04T22:40:37;54832.50;;;-143.77;66.41
13836;BME280;6988;52.614;13.500;2023-03-04T23:04:20;54850.97;;;-143.77;67.54
13836;BME280;6988;52.614;13.500;2023-03-04T23:09:12;54877.66;;;-143.77;68.15
13836;BME280;6988;52.614;13.500;2023-03-04T23:14:04;54840.72;;;-143.77;68.93
13836;BME280;6988;52.614;13.500;2023-03-04T23:18:57;54902.28;;;-143.77;69.21
13836;BME280;6988;52.614;13.500;2023-03-04T23:23:51;54863.28;;;-143.77;69.33
13836;BME280;6988;52.614;13.500;2023-03-04T23:28:44;54832.50;;;-143.77;68.49
13836;BME280;6988;52.614;13.500;2023-03-04T23:33:36;54828.41;;;-143.77;68.54
13836;BME280;6988;52.614;13.500;2023-03-04T23:38:29;54832.50;;;-143.77;67.85
13836;BME280;6988;52.614;13.500;2023-03-04T23:43:22;54836.59;;;-143.77;67.38
13836;BME280;6988;52.614;13.500;2023-03-04T23:48:16;54861.22;;;-143.77;68.12
13836;BME280;6988;52.614;13.500;2023-03-04T23:53:08;54828.41;;;-143.77;68.59
13836;BME280;6988;52.614;13.500;2023-03-04T23:58:00;54807.88;;;-143.77;70.07
